Погода Исла-де-Омепетена неделю

Рива, Никарагуа

02 - 08 марта
  • 02марта
    Сегодня
    +23°
    +31°
    Небольшая облачность
    ВремяПогодаТемператураВлажностьДавлениеВетер, м/сВероятность осадков
    00:00Практически безоблачно+25°C84 %756 мм6.7 м/с4 %
    03:00Небольшая облачность+25°C90 %755 мм6.6 м/с13 %
    06:00Небольшая облачность+24°C89 %756 мм6.8 м/с14 %
    09:00Облачно с прояснениями, ливень+27°C82 %757 мм7.3 м/с31 %
    12:00Ясно и безоблачно+29°C66 %756 мм5.5 м/с18 %
    15:00Небольшая облачность+31°C60 %753 мм4.5 м/с6 %
    18:00Ясно и безоблачно+29°C63 %753 мм7.6 м/с2 %
    21:00Ясно и безоблачно+27°C76 %755 мм7.4 м/с2 %
  • 03марта
    Воскресенье
    +24°
    +31°
    Ясно и безоблачно
    ВремяПогодаТемператураВлажностьДавлениеВетер, м/сВероятность осадков
    00:00Практически безоблачно+25°C86 %755 мм6.7 м/с5 %
    03:00Практически безоблачно+25°C89 %754 мм6.5 м/с9 %
    06:00Практически безоблачно+24°C90 %755 мм5.7 м/с13 %
    09:00Небольшая облачность и лёгкий дождик+26°C80 %757 мм6.2 м/с21 %
    12:00Практически безоблачно+29°C67 %755 мм4.0 м/с11 %
    15:00Ясно и безоблачно+31°C61 %752 мм3.0 м/с2 %
    18:00Ясно и безоблачно+28°C66 %752 мм2.1 м/с2 %
    21:00Ясно и безоблачно+27°C72 %754 мм6.7 м/с2 %
  • 04марта
    Понедельник
    +24°
    +31°
    Ясно и безоблачно
    ВремяПогодаТемператураВлажностьДавлениеВетер, м/сВероятность осадков
    00:00Ясно и безоблачно+25°C86 %754 мм6.4 м/с2 %
    03:00Ясно и безоблачно+25°C90 %753 мм6.1 м/с14 %
    06:00Практически безоблачно+24°C90 %754 мм5.9 м/с25 %
    09:00Ясно и безоблачно+26°C82 %756 мм6.2 м/с26 %
    12:00Ясно и безоблачно+29°C66 %754 мм3.8 м/с8 %
    15:00Ясно и безоблачно+31°C56 %751 мм2.4 м/с2 %
    18:00Практически безоблачно+29°C62 %751 мм2.1 м/с2 %
    21:00Ясно и безоблачно+27°C71 %753 мм6.7 м/с2 %
  • 05марта
    Вторник
    +24°
    +31°
    Практически безоблачно
    ВремяПогодаТемператураВлажностьДавлениеВетер, м/сВероятность осадков
    00:00Ясно и безоблачно+25°C84 %753 мм6.2 м/с2 %
    03:00Практически безоблачно+25°C88 %752 мм5.9 м/с19 %
    06:00Практически безоблачно+24°C88 %754 мм5.8 м/с36 %
    09:00Практически безоблачно+26°C80 %755 мм6.1 м/с37 %
    12:00Ясно и безоблачно+29°C66 %753 мм3.6 м/с20 %
    15:00Практически безоблачно+31°C54 %750 мм2.0 м/с2 %
    18:00Небольшая облачность+29°C62 %751 мм1.9 м/с2 %
    21:00Небольшая облачность+27°C71 %753 мм6.0 м/с2 %
  • 06марта
    Среда
    +24°
    +32°
    Практически безоблачно
    ВремяПогодаТемператураВлажностьДавлениеВетер, м/сВероятность осадков
    00:00Ясно и безоблачно+25°C83 %753 мм6.1 м/с4 %
    03:00Ясно и безоблачно+25°C87 %752 мм6.0 м/с27 %
    06:00Практически безоблачно+24°C87 %753 мм5.4 м/с40 %
    09:00Ясно и безоблачно+26°C79 %754 мм5.4 м/с36 %
    12:00Небольшая облачность+29°C64 %753 мм3.3 м/с24 %
    15:00Практически безоблачно+31°C55 %750 мм3.1 м/с2 %
    18:00Ясно и безоблачно+29°C59 %751 мм1.9 м/с2 %
    21:00Ясно и безоблачно+28°C71 %753 мм6.7 м/с2 %
Мы используем cookies
Соглашаюсь